Time;durP1;ratioP1;P1;durP2;ratioP2;P2;SDS_P1;SDS_P2;PMS_P1;PMS_P2;Temp;Humidity;BMP_temperature;BMP_pressure;BME280_temperature;BME280_humidity;BME280_pressure;Samples;Min_cycle;Max_cycle;Signal;HPM_P1;HPM_P2
2022/10/13 00:02:15;;;;;;;24.50;14.55;;;;;;;;;;5055385;28;20021;-67
2022/10/13 00:04:40;;;;;;;22.45;14.35;;;;;;;;;;5055276;28;20020;-66
2022/10/13 00:07:06;;;;;;;24.83;14.63;;;;;;;;;;5073544;28;20029;-67
2022/10/13 00:09:32;;;;;;;22.67;14.15;;;;;;;;;;5073338;28;20380;-67
2022/10/13 00:11:58;;;;;;;23.85;13.90;;;;;;;;;;5073549;28;20020;-66
2022/10/13 00:14:23;;;;;;;21.10;12.63;;;;;;;;;;5073413;28;20479;-66
2022/10/13 00:16:50;;;;;;;22.23;13.63;;;;;;;;;;5073277;28;20110;-67
2022/10/13 00:19:15;;;;;;;19.95;13.50;;;;;;;;;;5074732;28;20114;-66
2022/10/13 00:21:40;;;;;;;19.88;13.27;;;;;;;;;;5076985;28;20037;-66
2022/10/13 00:24:08;;;;;;;23.67;13.20;;;;;;;;;;5077111;28;20025;-68
2022/10/13 00:26:33;;;;;;;20.50;12.98;;;;;;;;;;5077193;28;20037;-69
2022/10/13 00:28:59;;;;;;;20.35;12.77;;;;;;;;;;5076962;28;20073;-69
2022/10/13 00:31:27;;;;;;;21.83;12.82;;;;;;;;;;5058934;28;20024;-68
2022/10/13 00:33:52;;;;;;;20.33;12.80;;;;;;;;;;5077205;28;20020;-68
2022/10/13 00:36:21;;;;;;;21.05;12.60;;;;;;;;;;5076916;28;20036;-68
2022/10/13 00:38:46;;;;;;;19.25;12.23;;;;;;;;;;5059248;28;20045;-68
2022/10/13 00:41:12;;;;;;;19.02;11.60;;;;;;;;;;5058891;28;20559;-68
2022/10/13 00:43:51;;;;;;;18.92;11.00;;;;;;;;;;5076868;28;20043;-68
2022/10/13 00:46:17;;;;;;;16.85;10.77;;;;;;;;;;5076812;28;20036;-68
2022/10/13 00:48:44;;;;;;;16.45;10.57;;;;;;;;;;5077006;28;20116;-67
2022/10/13 00:51:10;;;;;;;16.88;10.60;;;;;;;;;;5069889;28;20495;-67
2022/10/13 00:53:37;;;;;;;16.27;10.65;;;;;;;;;;5056515;28;20016;-67
2022/10/13 00:56:04;;;;;;;12.93;9.63;;;;;;;;;;5056361;28;20032;-67
2022/10/13 00:58:31;;;;;;;13.02;9.50;;;;;;;;;;5056605;28;20449;-67
2022/10/13 01:00:57;;;;;;;15.48;10.10;;;;;;;;;;5056536;28;20033;-67
2022/10/13 01:03:23;;;;;;;15.55;10.65;;;;;;;;;;5056799;28;20441;-67
2022/10/13 01:05:50;;;;;;;16.60;9.95;;;;;;;;;;5056642;28;20373;-66
2022/10/13 01:08:16;;;;;;;16.13;10.18;;;;;;;;;;5056414;28;20017;-66
2022/10/13 01:10:44;;;;;;;17.55;10.20;;;;;;;;;;5021764;28;20029;-65
2022/10/13 01:13:13;;;;;;;20.27;11.13;;;;;;;;;;5056396;28;20024;-65
2022/10/13 01:15:42;;;;;;;19.40;11.10;;;;;;;;;;5056015;28;20083;-63
2022/10/13 01:18:08;;;;;;;18.10;10.63;;;;;;;;;;5056701;28;20040;-63
2022/10/13 01:20:34;;;;;;;17.60;10.50;;;;;;;;;;5038093;28;20129;-63
2022/10/13 01:23:37;;;;;;;16.35;10.02;;;;;;;;;;5056246;28;20074;-65
2022/10/13 01:26:17;;;;;;;15.85;10.73;;;;;;;;;;4939634;29;20062;-65
2022/10/13 01:29:12;;;;;;;17.35;10.98;;;;;;;;;;5032317;28;20370;-65
2022/10/13 01:31:37;;;;;;;16.23;10.75;;;;;;;;;;5055089;28;20033;-65
2022/10/13 01:34:08;;;;;;;17.83;10.75;;;;;;;;;;5055858;28;20021;-67
2022/10/13 01:36:46;;;;;;;21.80;11.05;;;;;;;;;;5055718;28;20041;-67
2022/10/13 01:39:14;;;;;;;17.05;10.63;;;;;;;;;;5056034;28;20542;-66
2022/10/13 01:41:41;;;;;;;18.83;11.23;;;;;;;;;;5055835;28;20445;-67
2022/10/13 01:44:16;;;;;;;20.15;11.77;;;;;;;;;;5055945;28;20399;-69
2022/10/13 01:46:50;;;;;;;16.20;10.50;;;;;;;;;;5055529;28;20054;-69
2022/10/13 01:49:17;;;;;;;17.48;10.80;;;;;;;;;;5055362;28;20025;-68
2022/10/13 01:51:43;;;;;;;17.20;10.27;;;;;;;;;;5055413;28;20021;-68
2022/10/13 01:54:10;;;;;;;14.30;9.32;;;;;;;;;;5055644;28;20021;-70
2022/10/13 01:56:37;;;;;;;15.95;9.77;;;;;;;;;;5037666;28;20021;-70
2022/10/13 02:02:20;;;;;;;13.88;9.73;;;;;;;;;;5097080;22;20049;-68
2022/10/13 02:04:48;;;;;;;14.48;9.00;;;;;;;;;;5082369;23;20141;-92
2022/10/13 02:07:17;;;;;;;15.65;8.60;;;;;;;;;;5081536;28;20097;-93
2022/10/13 02:09:46;;;;;;;14.57;8.88;;;;;;;;;;5081663;28;20485;-92
2022/10/13 02:12:23;;;;;;;13.13;8.30;;;;;;;;;;5081264;28;20031;-93
2022/10/13 02:14:49;;;;;;;12.80;8.23;;;;;;;;;;5097992;28;20027;-92
2022/10/13 02:17:15;;;;;;;13.60;8.00;;;;;;;;;;5081067;28;20015;-92
2022/10/13 02:19:43;;;;;;;12.05;7.63;;;;;;;;;;5098339;28;20023;-93
2022/10/13 02:22:11;;;;;;;16.90;8.68;;;;;;;;;;5081102;28;20022;-92
2022/10/13 02:24:37;;;;;;;15.10;8.70;;;;;;;;;;5098161;28;20032;-90
2022/10/13 02:27:04;;;;;;;14.27;8.80;;;;;;;;;;5081084;28;20019;-94
2022/10/13 02:29:29;;;;;;;11.45;8.15;;;;;;;;;;5098058;28;20028;-93
2022/10/13 02:31:54;;;;;;;14.15;8.40;;;;;;;;;;5081292;28;20039;-93
2022/10/13 02:34:20;;;;;;;16.45;9.38;;;;;;;;;;5098087;28;20027;-93
2022/10/13 02:36:45;;;;;;;13.10;8.43;;;;;;;;;;5080669;28;20026;-92
2022/10/13 02:39:11;;;;;;;14.32;8.57;;;;;;;;;;5080711;28;20100;-92
2022/10/13 02:41:37;;;;;;;10.73;8.20;;;;;;;;;;5080899;28;20065;-91
2022/10/13 02:44:04;;;;;;;16.95;8.95;;;;;;;;;;5097068;28;20031;-92
2022/10/13 02:46:34;;;;;;;12.07;8.20;;;;;;;;;;5081550;28;20026;-92
2022/10/13 02:48:59;;;;;;;13.57;8.50;;;;;;;;;;5080645;28;20032;-91
2022/10/13 02:51:27;;;;;;;14.05;8.65;;;;;;;;;;5081136;28;20466;-92
2022/10/13 02:53:52;;;;;;;15.52;8.38;;;;;;;;;;5097888;28;20038;-91
2022/10/13 02:56:18;;;;;;;12.80;8.00;;;;;;;;;;5080604;28;20050;-92
2022/10/13 02:58:43;;;;;;;16.45;8.50;;;;;;;;;;5097596;28;20112;-92
2022/10/13 03:01:09;;;;;;;13.45;8.05;;;;;;;;;;5080863;28;20020;-93
2022/10/13 03:03:35;;;;;;;12.40;8.48;;;;;;;;;;5097374;28;20048;-93
2022/10/13 03:06:01;;;;;;;12.38;8.27;;;;;;;;;;5080338;28;20169;-92
2022/10/13 03:08:27;;;;;;;12.77;8.85;;;;;;;;;;5097335;28;20118;-91
2022/10/13 03:10:52;;;;;;;14.13;7.65;;;;;;;;;;5080324;28;20039;-94
2022/10/13 03:13:18;;;;;;;13.88;8.57;;;;;;;;;;5080265;28;20030;-93
2022/10/13 03:15:43;;;;;;;11.07;8.10;;;;;;;;;;5080297;28;20029;-93
2022/10/13 03:18:09;;;;;;;11.43;8.13;;;;;;;;;;5080015;28;20031;-92
2022/10/13 03:20:35;;;;;;;12.98;8.15;;;;;;;;;;5080210;28;20053;-92
2022/10/13 03:23:00;;;;;;;11.25;8.07;;;;;;;;;;5097255;28;20029;-93
2022/10/13 03:25:26;;;;;;;13.00;7.38;;;;;;;;;;5080449;28;20020;-92
2022/10/13 03:27:53;;;;;;;11.70;7.97;;;;;;;;;;5080288;28;20031;-93
2022/10/13 03:30:18;;;;;;;14.93;8.10;;;;;;;;;;5079661;28;20039;-92
2022/10/13 03:32:44;;;;;;;15.85;8.18;;;;;;;;;;5097081;28;20109;-93
2022/10/13 03:35:09;;;;;;;15.23;8.07;;;;;;;;;;5080022;28;20012;-94
2022/10/13 03:37:35;;;;;;;11.77;7.63;;;;;;;;;;5080040;28;20036;-93
2022/10/13 03:40:00;;;;;;;14.25;8.32;;;;;;;;;;5080138;28;20079;-92
2022/10/13 03:42:25;;;;;;;12.48;8.07;;;;;;;;;;5079716;28;20032;-93
2022/10/13 03:44:51;;;;;;;13.55;8.35;;;;;;;;;;5079564;28;20466;-93
2022/10/13 03:47:16;;;;;;;9.40;7.75;;;;;;;;;;5079909;28;20131;-92
2022/10/13 03:49:41;;;;;;;13.75;8.18;;;;;;;;;;5063209;28;20016;-92
2022/10/13 03:52:07;;;;;;;14.10;8.48;;;;;;;;;;5097053;28;20023;-92
2022/10/13 03:54:32;;;;;;;11.32;7.93;;;;;;;;;;5082007;28;20012;-92
2022/10/13 03:56:58;;;;;;;16.33;9.02;;;;;;;;;;5084035;28;20110;-93
2022/10/13 03:59:23;;;;;;;15.05;9.10;;;;;;;;;;5083835;28;20113;-93
2022/10/13 04:01:48;;;;;;;19.33;9.00;;;;;;;;;;5083888;28;20474;-93
2022/10/13 04:04:14;;;;;;;14.00;9.00;;;;;;;;;;5083679;28;20111;-95
2022/10/13 04:06:40;;;;;;;16.33;9.23;;;;;;;;;;5084061;28;20027;-93
2022/10/13 04:09:05;;;;;;;11.10;8.75;;;;;;;;;;5085783;28;20020;-94
2022/10/13 04:11:31;;;;;;;15.90;9.88;;;;;;;;;;5084822;28;20024;-92
2022/10/13 04:13:57;;;;;;;13.63;9.35;;;;;;;;;;5083356;28;20020;-92
2022/10/13 04:16:24;;;;;;;15.82;9.35;;;;;;;;;;5100633;28;20435;-91
2022/10/13 04:18:57;;;;;;;13.52;8.68;;;;;;;;;;5084017;28;20080;-93
2022/10/13 04:21:23;;;;;;;11.52;7.97;;;;;;;;;;5100477;28;20524;-94
2022/10/13 04:23:48;;;;;;;14.38;8.05;;;;;;;;;;5083817;28;20065;-93
2022/10/13 04:26:15;;;;;;;14.15;8.52;;;;;;;;;;5100913;28;20034;-94
2022/10/13 04:28:41;;;;;;;12.98;8.10;;;;;;;;;;5084349;28;20028;-94
2022/10/13 04:31:06;;;;;;;17.17;8.43;;;;;;;;;;5100109;28;20031;-92
2022/10/13 04:33:32;;;;;;;15.43;9.52;;;;;;;;;;5083933;28;20110;-92
2022/10/13 04:35:57;;;;;;;15.80;9.80;;;;;;;;;;5100380;28;20062;-92
2022/10/13 04:38:23;;;;;;;14.40;9.55;;;;;;;;;;5083362;28;20030;-93
2022/10/13 04:40:49;;;;;;;14.40;9.05;;;;;;;;;;5100427;28;20508;-92
2022/10/13 04:43:14;;;;;;;16.13;9.75;;;;;;;;;;5100454;28;20052;-92
2022/10/13 04:45:40;;;;;;;11.85;8.43;;;;;;;;;;5100116;28;20056;-93
2022/10/13 04:48:05;;;;;;;12.90;8.73;;;;;;;;;;5083163;28;20037;-92
2022/10/13 04:50:30;;;;;;;16.88;9.23;;;;;;;;;;5082082;28;20027;-90
2022/10/13 04:52:59;;;;;;;15.43;8.98;;;;;;;;;;5082464;28;20026;-91
2022/10/13 04:55:27;;;;;;;12.95;8.75;;;;;;;;;;5082070;28;20027;-92
2022/10/13 04:57:57;;;;;;;11.98;8.93;;;;;;;;;;5082895;28;20629;-92
2022/10/13 05:00:41;;;;;;;;;;;;;;;;;;;;;
2022/10/13 05:03:21;;;;;;;15.63;10.07;;;;;;;;;;5098645;28;20135;-92
2022/10/13 05:06:03;;;;;;;15.43;8.00;;;;;;;;;;5081882;28;20048;-94
2022/10/13 05:08:37;;;;;;;11.70;8.05;;;;;;;;;;5104251;28;20126;-93
2022/10/13 05:11:50;;;;;;;11.32;7.95;;;;;;;;;;5108389;28;20032;-94
2022/10/13 05:14:18;;;;;;;14.73;8.27;;;;;;;;;;5063200;28;20031;-90
2022/10/13 05:16:58;;;;;;;10.85;8.77;;;;;;;;;;5082290;28;20499;-91
2022/10/13 05:19:37;;;;;;;12.00;9.02;;;;;;;;;;5099055;28;20119;-92
2022/10/13 05:22:07;;;;;;;22.13;13.85;;;;;;;;;;5082244;28;20042;-92
2022/10/13 05:24:36;;;;;;;23.05;15.05;;;;;;;;;;5081664;28;20038;-92
2022/10/13 05:27:06;;;;;;;22.17;14.27;;;;;;;;;;5099076;28;20035;-93
2022/10/13 05:29:38;;;;;;;18.58;13.15;;;;;;;;;;5082275;28;20031;-91
2022/10/13 05:32:04;;;;;;;18.27;11.70;;;;;;;;;;5080476;28;20035;-91
2022/10/13 05:34:31;;;;;;;18.02;11.23;;;;;;;;;;5081685;28;20032;-93
2022/10/13 05:36:57;;;;;;;16.95;10.90;;;;;;;;;;5082382;28;20031;-94
2022/10/13 05:39:22;;;;;;;15.40;9.65;;;;;;;;;;5084086;28;20026;-92
2022/10/13 05:41:47;;;;;;;14.82;9.82;;;;;;;;;;5117363;28;20042;-94
2022/10/13 05:44:18;;;;;;;15.40;10.27;;;;;;;;;;5083095;28;20050;-93
2022/10/13 05:46:53;;;;;;;17.45;11.02;;;;;;;;;;5099233;28;20516;-93
2022/10/13 05:49:19;;;;;;;18.90;11.43;;;;;;;;;;5098752;28;20028;-92
2022/10/13 05:51:52;;;;;;;11.73;9.20;;;;;;;;;;5081660;28;20081;-93
2022/10/13 05:54:23;;;;;;;18.85;9.25;;;;;;;;;;5098344;28;20069;-93
2022/10/13 05:56:54;;;;;;;16.77;8.97;;;;;;;;;;5097323;28;20030;-94
2022/10/13 05:59:20;;;;;;;14.10;9.38;;;;;;;;;;5097629;28;20276;-93
2022/10/13 06:01:45;;;;;;;14.73;10.13;;;;;;;;;;5080740;28;20019;-92
2022/10/13 06:04:17;;;;;;;14.98;9.88;;;;;;;;;;5081088;28;20044;-93
2022/10/13 06:06:43;;;;;;;14.57;9.05;;;;;;;;;;5098481;28;20024;-94
2022/10/13 06:09:09;;;;;;;16.30;9.45;;;;;;;;;;5098055;28;20019;-93
2022/10/13 06:11:34;;;;;;;17.52;10.02;;;;;;;;;;5097646;28;20027;-92
2022/10/13 06:14:00;;;;;;;12.38;9.18;;;;;;;;;;5080596;28;20119;-93
2022/10/13 06:16:25;;;;;;;20.55;11.73;;;;;;;;;;5080626;28;20031;-92
2022/10/13 06:18:51;;;;;;;16.98;11.20;;;;;;;;;;5080929;28;20019;-94
2022/10/13 06:21:16;;;;;;;18.55;11.60;;;;;;;;;;5081423;28;20061;-92
2022/10/13 06:23:42;;;;;;;15.25;9.48;;;;;;;;;;5081196;28;20011;-94
2022/10/13 06:26:09;;;;;;;18.33;10.10;;;;;;;;;;5098215;28;20484;-93
2022/10/13 06:28:35;;;;;;;16.00;9.30;;;;;;;;;;5081651;28;20027;-92
2022/10/13 06:31:02;;;;;;;13.35;8.80;;;;;;;;;;5098235;28;20439;-92
2022/10/13 06:33:27;;;;;;;15.73;8.32;;;;;;;;;;5081178;28;20015;-93
2022/10/13 06:35:53;;;;;;;11.38;7.68;;;;;;;;;;5081297;28;20035;-93
2022/10/13 06:38:18;;;;;;;16.13;9.02;;;;;;;;;;5081369;28;20015;-93
2022/10/13 06:40:46;;;;;;;19.80;9.63;;;;;;;;;;5098206;28;20077;-92
2022/10/13 06:43:11;;;;;;;17.50;9.25;;;;;;;;;;5080499;28;20015;-94
2022/10/13 06:45:40;;;;;;;17.00;8.77;;;;;;;;;;5097906;28;20123;-92
2022/10/13 06:48:05;;;;;;;11.32;7.60;;;;;;;;;;5081253;28;20114;-94
2022/10/13 06:50:31;;;;;;;14.85;8.00;;;;;;;;;;5080792;28;20534;-93
2022/10/13 06:52:56;;;;;;;15.80;7.88;;;;;;;;;;5081339;28;20492;-92
2022/10/13 06:55:22;;;;;;;11.40;6.63;;;;;;;;;;5080993;28;20031;-92
2022/10/13 06:57:47;;;;;;;11.55;7.53;;;;;;;;;;5081340;28;20114;-92
2022/10/13 07:00:12;;;;;;;14.05;6.97;;;;;;;;;;5080995;28;20019;-93
2022/10/13 07:02:38;;;;;;;10.32;6.07;;;;;;;;;;5081104;28;20059;-93
2022/10/13 07:05:04;;;;;;;14.27;7.47;;;;;;;;;;5081100;28;20043;-92
2022/10/13 07:07:29;;;;;;;13.30;6.82;;;;;;;;;;5080677;28;20035;-94
2022/10/13 07:09:54;;;;;;;10.75;6.32;;;;;;;;;;5098171;28;20023;-92
2022/10/13 07:12:20;;;;;;;21.27;10.50;;;;;;;;;;5080407;28;20027;-93
2022/10/13 07:14:46;;;;;;;14.30;7.43;;;;;;;;;;5081437;28;20024;-92
2022/10/13 07:17:11;;;;;;;10.15;6.20;;;;;;;;;;5082590;28;20018;-93
2022/10/13 07:19:37;;;;;;;10.32;5.97;;;;;;;;;;5080305;28;20032;-94
2022/10/13 07:22:02;;;;;;;9.15;5.22;;;;;;;;;;5080505;28;20484;-94
2022/10/13 07:24:27;;;;;;;10.38;6.18;;;;;;;;;;5080395;28;20039;-92
2022/10/13 07:26:53;;;;;;;8.73;5.40;;;;;;;;;;5079916;28;20045;-92
2022/10/13 07:29:19;;;;;;;10.90;5.78;;;;;;;;;;5096853;28;20488;-94
2022/10/13 07:31:45;;;;;;;7.63;5.43;;;;;;;;;;5080587;28;20104;-93
2022/10/13 07:34:10;;;;;;;8.40;5.10;;;;;;;;;;5080193;28;20584;-93
2022/10/13 07:36:39;;;;;;;10.25;5.00;;;;;;;;;;5080376;28;20118;-93
2022/10/13 07:39:04;;;;;;;9.68;5.38;;;;;;;;;;5080078;28;20031;-94
2022/10/13 07:41:30;;;;;;;7.15;4.93;;;;;;;;;;5080265;28;20111;-94
2022/10/13 07:43:56;;;;;;;8.52;5.80;;;;;;;;;;5097070;28;20402;-93
2022/10/13 07:46:22;;;;;;;9.95;5.43;;;;;;;;;;5079853;28;20023;-92
2022/10/13 07:48:47;;;;;;;13.15;5.60;;;;;;;;;;5097143;28;20541;-92
2022/10/13 07:51:13;;;;;;;11.30;5.57;;;;;;;;;;5079913;28;20016;-93
2022/10/13 07:53:39;;;;;;;8.65;5.65;;;;;;;;;;5096944;28;20152;-93
2022/10/13 07:56:05;;;;;;;11.75;5.65;;;;;;;;;;5080056;28;20024;-94
2022/10/13 07:58:31;;;;;;;12.38;5.95;;;;;;;;;;5096813;28;20493;-92
2022/10/13 08:01:00;;;;;;;13.65;5.82;;;;;;;;;;5080035;28;20047;-93
2022/10/13 08:03:27;;;;;;;10.93;5.40;;;;;;;;;;5096707;28;20047;-94
2022/10/13 08:05:53;;;;;;;10.18;4.97;;;;;;;;;;5079918;28;20164;-94
2022/10/13 08:08:18;;;;;;;8.55;4.93;;;;;;;;;;5096813;28;20035;-93
2022/10/13 08:10:44;;;;;;;11.07;5.35;;;;;;;;;;5079943;28;20023;-92
2022/10/13 08:13:10;;;;;;;8.98;4.88;;;;;;;;;;5096956;28;20035;-95
2022/10/13 08:15:38;;;;;;;6.10;4.38;;;;;;;;;;5079711;28;20042;-94
2022/10/13 08:18:04;;;;;;;8.48;4.68;;;;;;;;;;5079737;28;20019;-94
2022/10/13 08:20:29;;;;;;;8.13;5.70;;;;;;;;;;5079389;28;20086;-93
2022/10/13 08:22:54;;;;;;;7.35;4.55;;;;;;;;;;5096600;28;20488;-93
2022/10/13 08:25:20;;;;;;;6.20;4.22;;;;;;;;;;5079433;28;20073;-93
2022/10/13 08:27:45;;;;;;;6.55;4.47;;;;;;;;;;5079903;28;20062;-93
2022/10/13 08:30:11;;;;;;;5.95;3.97;;;;;;;;;;5079778;28;20019;-93
2022/10/13 08:32:36;;;;;;;5.75;3.83;;;;;;;;;;5079252;28;20027;-93
2022/10/13 08:35:02;;;;;;;7.85;4.82;;;;;;;;;;5079884;28;20022;-93
2022/10/13 08:37:27;;;;;;;8.35;4.60;;;;;;;;;;5079098;28;20493;-93
2022/10/13 08:39:54;;;;;;;4.35;3.55;;;;;;;;;;5080357;28;20016;-94
2022/10/13 08:42:21;;;;;;;3.97;3.20;;;;;;;;;;5083267;28;20035;-94
2022/10/13 08:44:52;;;;;;;8.57;4.10;;;;;;;;;;5083270;28;20012;-93
2022/10/13 08:47:20;;;;;;;10.18;4.80;;;;;;;;;;5100264;28;20031;-94
2022/10/13 08:49:46;;;;;;;5.30;3.72;;;;;;;;;;5083463;28;20024;-93
2022/10/13 08:52:23;;;;;;;5.40;3.85;;;;;;;;;;5100292;28;20035;-94
2022/10/13 08:54:49;;;;;;;6.53;4.10;;;;;;;;;;5080702;28;20393;-93
2022/10/13 08:57:15;;;;;;;8.30;4.13;;;;;;;;;;5083874;28;20023;-93
2022/10/13 08:59:40;;;;;;;6.88;4.30;;;;;;;;;;5101343;28;20028;-93
2022/10/13 09:02:10;;;;;;;5.88;3.92;;;;;;;;;;5083597;28;20055;-94
2022/10/13 09:04:40;;;;;;;7.10;4.43;;;;;;;;;;5100661;28;20062;-94
2022/10/13 09:07:08;;;;;;;4.55;3.65;;;;;;;;;;5084462;28;20028;-93
2022/10/13 09:09:34;;;;;;;6.25;3.67;;;;;;;;;;5084060;28;20177;-95
2022/10/13 09:11:59;;;;;;;7.13;3.92;;;;;;;;;;5083806;28;20050;-93
2022/10/13 09:14:27;;;;;;;7.15;3.78;;;;;;;;;;5100685;28;20032;-94
2022/10/13 09:16:53;;;;;;;6.10;3.28;;;;;;;;;;5100749;28;20030;-94
2022/10/13 09:19:27;;;;;;;7.80;3.90;;;;;;;;;;5083651;28;20023;-94
2022/10/13 09:21:54;;;;;;;4.43;3.47;;;;;;;;;;5083325;28;20465;-94
2022/10/13 09:24:20;;;;;;;7.82;3.88;;;;;;;;;;5100707;28;20122;-93
2022/10/13 09:26:47;;;;;;;5.85;3.78;;;;;;;;;;5084113;28;20024;-94
2022/10/13 09:29:17;;;;;;;4.88;3.72;;;;;;;;;;5084366;28;20023;-92
2022/10/13 09:31:42;;;;;;;8.85;4.30;;;;;;;;;;5100873;28;20043;-93
2022/10/13 09:34:18;;;;;;;4.60;3.55;;;;;;;;;;5083846;28;20462;-93
2022/10/13 09:36:57;;;;;;;4.38;3.28;;;;;;;;;;5084176;28;20048;-93
2022/10/13 09:39:22;;;;;;;7.20;3.33;;;;;;;;;;5083633;28;20024;-93
2022/10/13 09:41:48;;;;;;;3.65;2.70;;;;;;;;;;5082619;28;20065;-94
2022/10/13 09:44:17;;;;;;;4.75;2.72;;;;;;;;;;5082998;28;20470;-94
2022/10/13 09:46:54;;;;;;;4.68;3.00;;;;;;;;;;5099409;28;20032;-93
2022/10/13 09:49:37;;;;;;;4.47;2.97;;;;;;;;;;5083110;28;20078;-93
2022/10/13 09:52:11;;;;;;;6.10;3.25;;;;;;;;;;5082755;28;20035;-93
2022/10/13 09:54:37;;;;;;;6.85;3.72;;;;;;;;;;5082690;28;20035;-93
2022/10/13 09:57:24;;;;;;;5.40;3.88;;;;;;;;;;5082907;28;20027;-93
2022/10/13 09:59:51;;;;;;;3.20;2.85;;;;;;;;;;5099270;28;20055;-92
2022/10/13 10:02:25;;;;;;;3.53;3.03;;;;;;;;;;5083548;28;20015;-95
2022/10/13 10:04:53;;;;;;;4.38;3.20;;;;;;;;;;5083971;28;20079;-94
2022/10/13 10:07:20;;;;;;;3.80;2.80;;;;;;;;;;5084053;28;20032;-96
2022/10/13 10:09:51;;;;;;;5.20;2.47;;;;;;;;;;5064791;28;20036;-95
2022/10/13 10:12:21;;;;;;;4.45;3.03;;;;;;;;;;5081218;28;20036;-94
2022/10/13 10:14:48;;;;;;;3.92;3.28;;;;;;;;;;5070358;28;20024;-95
2022/10/13 10:17:15;;;;;;;3.55;3.25;;;;;;;;;;5090580;28;20032;-95
2022/10/13 10:19:51;;;;;;;4.93;3.50;;;;;;;;;;5089509;28;20016;-95
2022/10/13 10:22:34;;;;;;;5.15;3.67;;;;;;;;;;5088499;28;20024;-95
2022/10/13 10:25:13;;;;;;;4.72;3.20;;;;;;;;;;5073145;28;20020;-94
2022/10/13 10:27:42;;;;;;;4.50;2.88;;;;;;;;;;5106838;28;20115;-95
2022/10/13 10:30:13;;;;;;;5.63;3.80;;;;;;;;;;5091327;28;20020;-95
2022/10/13 10:32:45;;;;;;;5.95;4.18;;;;;;;;;;5091003;28;20024;-95
2022/10/13 10:35:11;;;;;;;7.78;3.95;;;;;;;;;;5088854;28;20022;-95
2022/10/13 10:37:38;;;;;;;3.70;2.88;;;;;;;;;;5088636;28;20019;-94
2022/10/13 10:40:13;;;;;;;4.53;3.53;;;;;;;;;;5086686;28;20020;-96
2022/10/13 10:42:42;;;;;;;5.43;3.08;;;;;;;;;;5085132;28;20040;-96
2022/10/13 10:45:14;;;;;;;7.63;3.38;;;;;;;;;;5102023;28;20012;-95
2022/10/13 10:47:41;;;;;;;8.40;3.97;;;;;;;;;;5084849;28;20153;-95
2022/10/13 10:50:07;;;;;;;4.43;3.95;;;;;;;;;;5094583;28;20111;-94
2022/10/13 10:52:46;;;;;;;4.90;3.95;;;;;;;;;;5078079;28;20526;-93
2022/10/13 10:55:20;;;;;;;5.07;4.00;;;;;;;;;;5056967;28;20050;-94
2022/10/13 10:57:55;;;;;;;4.10;3.55;;;;;;;;;;5078415;28;20390;-93
2022/10/13 11:00:21;;;;;;;10.65;5.65;;;;;;;;;;5078287;28;20414;-94
2022/10/13 11:02:52;;;;;;;9.07;5.18;;;;;;;;;;5061716;28;20020;-93
2022/10/13 11:05:18;;;;;;;6.85;4.75;;;;;;;;;;5061691;28;20050;-93
2022/10/13 11:07:44;;;;;;;5.22;4.13;;;;;;;;;;5062310;28;20481;-94
2022/10/13 11:10:12;;;;;;;8.00;4.68;;;;;;;;;;5061750;28;20103;-93
2022/10/13 11:13:07;;;;;;;8.27;5.00;;;;;;;;;;5061483;28;20050;-94
2022/10/13 11:15:45;;;;;;;6.93;4.28;;;;;;;;;;5077947;28;20024;-94
2022/10/13 11:18:30;;;;;;;7.35;4.45;;;;;;;;;;5078243;28;20520;-93
2022/10/13 11:20:58;;;;;;;6.88;4.22;;;;;;;;;;5077693;28;20054;-93
2022/10/13 11:23:23;;;;;;;7.32;4.03;;;;;;;;;;5060551;28;20044;-94
2022/10/13 11:25:49;;;;;;;5.35;3.58;;;;;;;;;;5060500;28;20501;-92
2022/10/13 11:28:20;;;;;;;8.93;4.75;;;;;;;;;;5060483;28;20424;-93
2022/10/13 11:30:50;;;;;;;6.63;4.38;;;;;;;;;;5060362;28;20385;-94
2022/10/13 11:33:31;;;;;;;7.20;4.10;;;;;;;;;;5061888;28;20026;-95
2022/10/13 11:35:56;;;;;;;6.50;4.15;;;;;;;;;;5061016;28;20027;-94
2022/10/13 11:38:31;;;;;;;4.57;4.10;;;;;;;;;;5060036;28;20012;-91
2022/10/13 11:41:04;;;;;;;6.80;4.25;;;;;;;;;;5060080;28;20081;-93
2022/10/13 12:55:46;;;;;;;2.97;2.55;;;;;;;;;;5035921;28;20032;-94
2022/10/13 12:58:17;;;;;;;5.07;3.40;;;;;;;;;;5053113;28;20051;-92
2022/10/13 13:00:53;;;;;;;4.65;3.55;;;;;;;;;;5100129;28;20016;-93
2022/10/13 13:03:20;;;;;;;6.20;3.92;;;;;;;;;;5083263;28;20114;-93
2022/10/13 13:05:48;;;;;;;7.90;3.88;;;;;;;;;;5082762;28;20430;-92
2022/10/13 13:08:28;;;;;;;7.15;3.60;;;;;;;;;;5099563;28;20085;-93
2022/10/13 13:10:57;;;;;;;4.07;2.47;;;;;;;;;;5083293;28;20040;-94
2022/10/13 13:13:23;;;;;;;3.25;2.95;;;;;;;;;;5082704;28;20012;-94
2022/10/13 13:15:48;;;;;;;4.00;2.85;;;;;;;;;;5082703;28;20028;-92
2022/10/13 13:18:29;;;;;;;4.70;3.20;;;;;;;;;;5082584;28;20011;-94
2022/10/13 13:20:55;;;;;;;5.18;3.40;;;;;;;;;;5101627;28;20027;-94
2022/10/13 13:23:25;;;;;;;4.20;3.30;;;;;;;;;;5093310;28;20022;-94
2022/10/13 13:26:00;;;;;;;5.30;3.20;;;;;;;;;;5083341;28;20050;-94
2022/10/13 13:28:30;;;;;;;3.40;3.10;;;;;;;;;;5086000;28;20058;-94
2022/10/13 13:30:56;;;;;;;4.45;3.45;;;;;;;;;;5101478;28;20028;-93
2022/10/13 13:33:21;;;;;;;4.20;3.38;;;;;;;;;;5082713;28;20106;-94
2022/10/13 13:35:50;;;;;;;7.03;3.13;;;;;;;;;;5101198;28;20065;-93
2022/10/13 13:38:15;;;;;;;5.88;3.65;;;;;;;;;;5084846;28;20008;-95
2022/10/13 13:40:58;;;;;;;6.10;3.97;;;;;;;;;;5089701;28;20084;-95
2022/10/13 13:43:23;;;;;;;5.63;3.50;;;;;;;;;;5097595;28;20000;-94
2022/10/13 13:45:50;;;;;;;8.77;3.58;;;;;;;;;;5103167;22;20178;-70
2022/10/13 13:48:15;;;;;;;5.50;3.78;;;;;;;;;;5095795;28;20131;-70
2022/10/13 13:50:41;;;;;;;4.53;4.05;;;;;;;;;;5095976;28;20024;-70
2022/10/13 13:53:06;;;;;;;7.35;5.50;;;;;;;;;;5095949;28;20035;-70
2022/10/13 13:55:31;;;;;;;8.85;5.18;;;;;;;;;;5095896;28;20121;-70
2022/10/13 13:57:57;;;;;;;11.40;5.90;;;;;;;;;;5095499;28;20031;-70
2022/10/13 14:00:22;;;;;;;10.70;6.13;;;;;;;;;;5077472;28;20426;-70
2022/10/13 14:02:53;;;;;;;10.02;5.57;;;;;;;;;;5078006;28;20035;-70
2022/10/13 14:05:18;;;;;;;9.55;6.32;;;;;;;;;;5094556;28;20052;-70
2022/10/13 14:07:43;;;;;;;6.60;5.20;;;;;;;;;;5093503;28;20463;-70
2022/10/13 14:10:09;;;;;;;13.10;8.35;;;;;;;;;;5059207;28;20028;-70
2022/10/13 14:12:34;;;;;;;13.40;9.75;;;;;;;;;;5094582;28;20024;-70
2022/10/13 14:15:00;;;;;;;8.82;6.32;;;;;;;;;;5094501;28;20066;-70
2022/10/13 14:17:26;;;;;;;12.80;6.82;;;;;;;;;;5094440;28;20020;-70
2022/10/13 14:19:52;;;;;;;10.98;6.60;;;;;;;;;;5095166;28;20524;-70
2022/10/13 14:22:18;;;;;;;10.02;5.55;;;;;;;;;;5060339;28;20028;-70
2022/10/13 14:24:43;;;;;;;11.15;5.70;;;;;;;;;;5095603;28;20023;-70
2022/10/13 14:27:09;;;;;;;45.55;29.35;;;;;;;;;;5094904;28;20478;-70
2022/10/13 14:29:35;;;;;;;12.55;7.25;;;;;;;;;;5076761;28;20067;-70
2022/10/13 14:32:00;;;;;;;11.63;7.00;;;;;;;;;;5095173;28;20017;-70
2022/10/13 14:34:26;;;;;;;9.88;6.10;;;;;;;;;;5094873;28;20021;-69
2022/10/13 14:36:51;;;;;;;9.30;6.13;;;;;;;;;;5095119;28;20488;-70
2022/10/13 14:39:19;;;;;;;12.00;6.45;;;;;;;;;;5094603;28;20449;-70
2022/10/13 14:41:44;;;;;;;13.55;6.32;;;;;;;;;;5094715;28;20054;-70
2022/10/13 14:44:11;;;;;;;10.30;6.40;;;;;;;;;;5094770;28;20038;-70
2022/10/13 14:46:36;;;;;;;15.00;6.28;;;;;;;;;;5094589;28;20031;-70
2022/10/13 14:49:02;;;;;;;10.55;6.10;;;;;;;;;;5094612;28;20024;-70
2022/10/13 14:51:27;;;;;;;12.85;6.90;;;;;;;;;;5076414;28;20091;-70
2022/10/13 14:53:52;;;;;;;12.32;6.68;;;;;;;;;;5094819;28;20116;-69
2022/10/13 14:56:19;;;;;;;13.02;6.88;;;;;;;;;;5076396;28;20043;-70
2022/10/13 14:58:50;;;;;;;10.52;6.35;;;;;;;;;;5094743;28;20032;-70
2022/10/13 15:01:16;;;;;;;12.88;6.10;;;;;;;;;;5076207;28;20039;-70
2022/10/13 15:03:41;;;;;;;12.73;6.25;;;;;;;;;;5094324;28;20051;-70
2022/10/13 15:06:11;;;;;;;11.25;6.15;;;;;;;;;;5094531;28;20028;-70
2022/10/13 15:08:37;;;;;;;11.02;6.57;;;;;;;;;;5094242;28;20016;-70
2022/10/13 15:11:02;;;;;;;12.35;6.60;;;;;;;;;;5094475;28;20028;-69
2022/10/13 15:13:28;;;;;;;13.43;6.70;;;;;;;;;;5094422;28;20028;-69
2022/10/13 15:15:55;;;;;;;10.63;6.72;;;;;;;;;;5094423;28;20467;-70
2022/10/13 15:18:21;;;;;;;13.48;6.65;;;;;;;;;;5094080;28;20016;-70
2022/10/13 15:20:46;;;;;;;9.38;7.03;;;;;;;;;;5094351;28;20035;-69
2022/10/13 15:23:12;;;;;;;14.35;9.10;;;;;;;;;;5094031;28;20095;-70
2022/10/13 15:25:38;;;;;;;14.93;9.35;;;;;;;;;;5093884;28;20031;-69
2022/10/13 15:28:04;;;;;;;13.30;8.23;;;;;;;;;;5094436;28;20070;-69
2022/10/13 15:30:32;;;;;;;12.70;7.70;;;;;;;;;;5093919;28;20429;-69
2022/10/13 15:33:07;;;;;;;11.38;7.38;;;;;;;;;;5077626;28;20020;-70
2022/10/13 15:35:32;;;;;;;11.02;6.95;;;;;;;;;;5093840;28;20039;-69
2022/10/13 15:37:57;;;;;;;10.93;6.88;;;;;;;;;;5059032;28;20016;-70
2022/10/13 15:40:23;;;;;;;12.48;7.82;;;;;;;;;;5093765;28;20365;-69
2022/10/13 15:42:48;;;;;;;19.80;10.55;;;;;;;;;;5093727;28;20024;-69
2022/10/13 15:45:14;;;;;;;18.75;11.77;;;;;;;;;;5093562;28;20040;-69
2022/10/13 15:47:39;;;;;;;21.48;12.18;;;;;;;;;;5093896;28;20030;-70
2022/10/13 15:50:05;;;;;;;27.98;17.63;;;;;;;;;;5075083;28;20436;-69
2022/10/13 15:52:30;;;;;;;43.63;25.50;;;;;;;;;;5075583;28;20027;-69
2022/10/13 15:54:55;;;;;;;28.65;18.05;;;;;;;;;;5075538;28;20020;-70